• Join FlightAware (Why Join?)
  • Login
  • US Flag 
03:11PM EDT


 

Airport Tracker/Info


-or-


 

Live Flight TrackerFlight Track Log ✈ N102WY ✈ 10-Mar-2014 ✈ KCYS - KWRL

Flight Track Log - Related Links

Times and Time Zones

All times are in EDT time to prevent confusion due to time zone crossing. See the N102WY flight status page for this flight to view local times or setup timezone preferences in your user account.

Time Position Orientation Groundspeed Altitude Reporting Facility
EDT Latitude Longitude Course Direction KTS MPH feet Rate Location/Type
08:55AM 41.1675 -104.8442 321° Northwest 201 231 8,900  Level Denver Center
08:56AM 41.2119 -104.8767 331° Northwest 192 221 11,100 2,700 Climbing Denver Center
08:57AM 41.2686 -104.9386 321° Northwest 226 260 14,400 3,120 Climbing Denver Center
08:58AM 41.3197 -104.9933 321° Northwest 239 275 17,500 2,760 Climbing Denver Center
08:59AM 41.3719 -105.0489 321° Northwest 247 284 19,900 2,520 Climbing Denver Center
09:00AM 41.6212 -105.3016 321° Northwest  Level FlightAware Approximate
09:00AM 41.4369 -105.1172 322° Northwest 261 300 22,700  Level Denver Center
09:01AM 41.4928 -105.1758 322° Northwest 267 307 25,000 2,100 Climbing Denver Center
09:02AM 41.5486 -105.2364 321° Northwest 266 306 27,000 1,980 Climbing Denver Center
09:03AM 41.6100 -105.3017 322° Northwest 258 297 29,100 1,680 Climbing Denver Center
09:04AM 41.6661 -105.3614 322° Northwest 266 306 30,500 1,380 Climbing Denver Center
09:05AM 41.7233 -105.4231 321° Northwest 273 314 31,900 1,500 Climbing Denver Center
09:06AM 41.7956 -105.5014 321° Northwest 292 336 33,600 960 Climbing Denver Center
09:07AM 41.8597 -105.5708 321° Northwest 304 350 34,000 180 Climbing Denver Center
09:08AM 41.9286 -105.6453 321° Northwest 326 375 34,000  Level Denver Center
09:09AM 42.0083 -105.7319 321° Northwest 330 380 34,000  Level Denver Center
09:10AM 42.0772 -105.8064 321° Northwest 329 379 34,000  Level Denver Center
09:11AM 42.1411 -105.8778 320° Northwest 318 366 34,000  Level Denver Center
09:12AM 42.2192 -105.9625 321° Northwest 320 368 34,000  Level Denver Center
09:13AM 42.2844 -106.0353 320° Northwest 320 368 34,000  Level Denver Center
09:14AM 42.3503 -106.1056 322° Northwest 318 366 34,000  Level Denver Center
09:15AM 42.4244 -106.1886 320° Northwest 311 358 34,000  Level Denver Center
09:16AM 42.4881 -106.2589 321° Northwest 311 358 34,000  Level Denver Center
09:17AM 42.5494 -106.3283 320° Northwest 302 348 34,000  Level Denver Center
09:18AM 42.6239 -106.4103 321° Northwest 303 349 34,000  Level Denver Center
09:19AM 42.6861 -106.4800 321° Northwest 303 349 34,000  Level Denver Center
09:20AM 42.7478 -106.5500 320° Northwest 303 349 34,000  Level Denver Center
09:21AM 42.8203 -106.6311 321° Northwest 303 349 34,000  Level Denver Center
09:22AM 42.8839 -106.7000 322° Northwest 303 349 34,000  Level Denver Center
09:23AM 42.9453 -106.7711 320° Northwest 303 349 34,000  Level Denver Center
09:24AM 43.0172 -106.8536 320° Northwest 305 351 34,000  Level Denver Center
09:25AM 43.0675 -106.9133 319° Northwest 299 344 34,000  Level Salt Lake Center
09:26AM 43.1286 -106.9819 321° Northwest 298 343 34,000 -600 Level Salt Lake Center
09:27AM 43.2061 -107.0714 320° Northwest 303 349 32,900 -1,500 Descending Salt Lake Center
09:28AM 43.2722 -107.1458 321° Northwest 308 354 31,000 -1,920 Descending Salt Lake Center
09:29AM 43.3431 -107.2286 320° Northwest 329 379 29,000 -2,220 Descending Salt Lake Center
09:30AM 43.4153 -107.3125 320° Northwest 337 388 26,500 -2,580 Descending Salt Lake Center
09:31AM 43.4858 -107.3939 320° Northwest 333 383 23,800 -3,000 Descending Salt Lake Center
09:32AM 43.5558 -107.4756 320° Northwest 330 380 20,500 -3,300 Descending Salt Lake Center
09:33AM 43.6289 -107.5603 320° Northwest 341 392 17,200 -3,300 Descending Salt Lake Center